sensor_id;sensor_type;location;lat;lon;timestamp;P1;durP1;ratioP1;P2;durP2;ratioP2
21091;SDS011;10704;42.678;23.288;2023-11-19T00:01:12;4.78;;;2.92;;
21091;SDS011;10704;42.678;23.288;2023-11-19T00:06:43;4.28;;;2.67;;
21091;SDS011;10704;42.678;23.288;2023-11-19T00:16:53;4.68;;;2.45;;
21091;SDS011;10704;42.678;23.288;2023-11-19T00:19:19;4.72;;;2.47;;
21091;SDS011;10704;42.678;23.288;2023-11-19T00:25:32;3.90;;;2.35;;
21091;SDS011;10704;42.678;23.288;2023-11-19T00:27:58;3.63;;;2.50;;
21091;SDS011;10704;42.678;23.288;2023-11-19T00:30:24;3.78;;;2.30;;
21091;SDS011;10704;42.678;23.288;2023-11-19T00:44:13;4.10;;;2.53;;
21091;SDS011;10704;42.678;23.288;2023-11-19T00:46:39;4.88;;;3.00;;
21091;SDS011;10704;42.678;23.288;2023-11-19T00:49:05;4.10;;;2.60;;
21091;SDS011;10704;42.678;23.288;2023-11-19T00:54:01;3.25;;;2.42;;
21091;SDS011;10704;42.678;23.288;2023-11-19T00:59:18;4.32;;;2.50;;
21091;SDS011;10704;42.678;23.288;2023-11-19T01:01:45;4.75;;;2.55;;
21091;SDS011;10704;42.678;23.288;2023-11-19T01:04:15;5.00;;;3.13;;
21091;SDS011;10704;42.678;23.288;2023-11-19T01:06:41;3.72;;;2.20;;
21091;SDS011;10704;42.678;23.288;2023-11-19T01:09:07;3.42;;;2.53;;
21091;SDS011;10704;42.678;23.288;2023-11-19T01:11:34;4.28;;;2.65;;
21091;SDS011;10704;42.678;23.288;2023-11-19T01:25:22;4.43;;;2.72;;
21091;SDS011;10704;42.678;23.288;2023-11-19T01:27:49;4.80;;;2.55;;
21091;SDS011;10704;42.678;23.288;2023-11-19T01:30:15;5.40;;;2.70;;
21091;SDS011;10704;42.678;23.288;2023-11-19T01:36:28;4.90;;;2.80;;
21091;SDS011;10704;42.678;23.288;2023-11-19T01:38:54;3.67;;;2.13;;
21091;SDS011;10704;42.678;23.288;2023-11-19T01:41:20;3.58;;;2.10;;
21091;SDS011;10704;42.678;23.288;2023-11-19T01:43:46;4.07;;;2.60;;
21091;SDS011;10704;42.678;23.288;2023-11-19T01:46:12;5.68;;;2.65;;
21091;SDS011;10704;42.678;23.288;2023-11-19T01:48:45;3.53;;;2.15;;
21091;SDS011;10704;42.678;23.288;2023-11-19T01:51:12;4.80;;;2.55;;
21091;SDS011;10704;42.678;23.288;2023-11-19T01:53:41;3.50;;;2.03;;
21091;SDS011;10704;42.678;23.288;2023-11-19T01:56:09;4.07;;;2.38;;
21091;SDS011;10704;42.678;23.288;2023-11-19T01:58:38;4.95;;;2.67;;
21091;SDS011;10704;42.678;23.288;2023-11-19T02:01:06;4.55;;;2.45;;
21091;SDS011;10704;42.678;23.288;2023-11-19T02:03:33;3.63;;;2.30;;
21091;SDS011;10704;42.678;23.288;2023-11-19T02:09:53;3.00;;;2.00;;
21091;SDS011;10704;42.678;23.288;2023-11-19T02:12:20;3.25;;;2.03;;
21091;SDS011;10704;42.678;23.288;2023-11-19T02:14:46;4.18;;;2.40;;
21091;SDS011;10704;42.678;23.288;2023-11-19T02:24:14;3.92;;;2.55;;
21091;SDS011;10704;42.678;23.288;2023-11-19T02:26:54;4.30;;;2.17;;
21091;SDS011;10704;42.678;23.288;2023-11-19T02:29:27;5.13;;;2.90;;
21091;SDS011;10704;42.678;23.288;2023-11-19T02:31:53;2.97;;;1.88;;
21091;SDS011;10704;42.678;23.288;2023-11-19T02:34:21;3.40;;;2.25;;
21091;SDS011;10704;42.678;23.288;2023-11-19T02:40:34;3.75;;;2.17;;
21091;SDS011;10704;42.678;23.288;2023-11-19T02:46:16;4.28;;;2.28;;
21091;SDS011;10704;42.678;23.288;2023-11-19T02:48:42;4.28;;;2.40;;
21091;SDS011;10704;42.678;23.288;2023-11-19T02:51:10;3.72;;;2.28;;
21091;SDS011;10704;42.678;23.288;2023-11-19T02:53:36;5.25;;;2.70;;
21091;SDS011;10704;42.678;23.288;2023-11-19T02:56:05;4.47;;;2.35;;
21091;SDS011;10704;42.678;23.288;2023-11-19T02:58:37;3.97;;;2.13;;
21091;SDS011;10704;42.678;23.288;2023-11-19T03:01:04;4.65;;;2.25;;
21091;SDS011;10704;42.678;23.288;2023-11-19T03:03:39;3.78;;;2.20;;
21091;SDS011;10704;42.678;23.288;2023-11-19T03:06:06;4.60;;;3.00;;
21091;SDS011;10704;42.678;23.288;2023-11-19T03:08:32;4.15;;;2.53;;
21091;SDS011;10704;42.678;23.288;2023-11-19T03:11:00;4.13;;;2.13;;
21091;SDS011;10704;42.678;23.288;2023-11-19T03:13:26;4.15;;;2.17;;
21091;SDS011;10704;42.678;23.288;2023-11-19T03:15:52;2.97;;;1.92;;
21091;SDS011;10704;42.678;23.288;2023-11-19T03:18:19;5.43;;;2.38;;
21091;SDS011;10704;42.678;23.288;2023-11-19T03:20:46;3.38;;;1.85;;
21091;SDS011;10704;42.678;23.288;2023-11-19T03:23:13;3.85;;;2.25;;
21091;SDS011;10704;42.678;23.288;2023-11-19T03:29:26;4.57;;;2.38;;
21091;SDS011;10704;42.678;23.288;2023-11-19T03:35:40;4.53;;;2.72;;
21091;SDS011;10704;42.678;23.288;2023-11-19T03:38:06;4.82;;;2.08;;
21091;SDS011;10704;42.678;23.288;2023-11-19T03:40:32;4.78;;;2.40;;
21091;SDS011;10704;42.678;23.288;2023-11-19T03:46:45;3.95;;;2.15;;
21091;SDS011;10704;42.678;23.288;2023-11-19T03:59:16;4.07;;;2.35;;
21091;SDS011;10704;42.678;23.288;2023-11-19T04:01:44;4.70;;;2.85;;
21091;SDS011;10704;42.678;23.288;2023-11-19T04:04:09;4.28;;;2.50;;
21091;SDS011;10704;42.678;23.288;2023-11-19T04:06:35;4.28;;;2.38;;
21091;SDS011;10704;42.678;23.288;2023-11-19T04:09:01;4.35;;;2.25;;
21091;SDS011;10704;42.678;23.288;2023-11-19T04:11:27;3.90;;;2.10;;
21091;SDS011;10704;42.678;23.288;2023-11-19T04:13:53;4.00;;;2.47;;
21091;SDS011;10704;42.678;23.288;2023-11-19T04:16:19;6.60;;;3.20;;
21091;SDS011;10704;42.678;23.288;2023-11-19T04:18:53;4.53;;;2.40;;
21091;SDS011;10704;42.678;23.288;2023-11-19T04:21:19;5.05;;;2.55;;
21091;SDS011;10704;42.678;23.288;2023-11-19T04:23:45;6.28;;;2.90;;
21091;SDS011;10704;42.678;23.288;2023-11-19T04:26:11;5.60;;;3.03;;
21091;SDS011;10704;42.678;23.288;2023-11-19T04:28:37;4.68;;;2.25;;
21091;SDS011;10704;42.678;23.288;2023-11-19T04:31:06;5.68;;;3.00;;
21091;SDS011;10704;42.678;23.288;2023-11-19T04:33:32;4.32;;;2.65;;
21091;SDS011;10704;42.678;23.288;2023-11-19T04:35:58;5.50;;;2.53;;
21091;SDS011;10704;42.678;23.288;2023-11-19T04:38:24;3.78;;;2.13;;
21091;SDS011;10704;42.678;23.288;2023-11-19T04:40:52;4.88;;;2.40;;
21091;SDS011;10704;42.678;23.288;2023-11-19T04:43:18;3.63;;;2.15;;
21091;SDS011;10704;42.678;23.288;2023-11-19T04:45:46;4.15;;;2.28;;
21091;SDS011;10704;42.678;23.288;2023-11-19T04:48:11;8.82;;;2.38;;
21091;SDS011;10704;42.678;23.288;2023-11-19T04:50:37;3.53;;;2.03;;
21091;SDS011;10704;42.678;23.288;2023-11-19T04:53:03;3.70;;;2.40;;
21091;SDS011;10704;42.678;23.288;2023-11-19T04:55:30;3.28;;;2.05;;
21091;SDS011;10704;42.678;23.288;2023-11-19T04:57:56;4.82;;;2.70;;
21091;SDS011;10704;42.678;23.288;2023-11-19T05:00:21;4.78;;;2.60;;
21091;SDS011;10704;42.678;23.288;2023-11-19T05:02:48;7.40;;;2.60;;
21091;SDS011;10704;42.678;23.288;2023-11-19T05:05:15;4.32;;;2.25;;
21091;SDS011;10704;42.678;23.288;2023-11-19T05:07:41;4.03;;;2.40;;
21091;SDS011;10704;42.678;23.288;2023-11-19T05:10:07;6.78;;;3.22;;
21091;SDS011;10704;42.678;23.288;2023-11-19T05:12:33;3.80;;;2.13;;
21091;SDS011;10704;42.678;23.288;2023-11-19T05:14:59;3.95;;;2.40;;
21091;SDS011;10704;42.678;23.288;2023-11-19T05:17:25;3.92;;;2.15;;
21091;SDS011;10704;42.678;23.288;2023-11-19T05:19:51;4.30;;;2.30;;
21091;SDS011;10704;42.678;23.288;2023-11-19T05:22:17;4.63;;;2.35;;
21091;SDS011;10704;42.678;23.288;2023-11-19T05:24:43;3.58;;;2.13;;
21091;SDS011;10704;42.678;23.288;2023-11-19T05:27:09;5.82;;;2.42;;
21091;SDS011;10704;42.678;23.288;2023-11-19T05:29:36;4.28;;;2.20;;
21091;SDS011;10704;42.678;23.288;2023-11-19T05:32:04;4.70;;;2.38;;
21091;SDS011;10704;42.678;23.288;2023-11-19T05:34:30;3.40;;;2.03;;
21091;SDS011;10704;42.678;23.288;2023-11-19T05:36:56;3.63;;;2.15;;
21091;SDS011;10704;42.678;23.288;2023-11-19T05:39:23;3.78;;;2.17;;
21091;SDS011;10704;42.678;23.288;2023-11-19T05:41:49;5.50;;;2.97;;
21091;SDS011;10704;42.678;23.288;2023-11-19T05:44:16;5.95;;;2.70;;
21091;SDS011;10704;42.678;23.288;2023-11-19T05:49:35;4.25;;;2.50;;
21091;SDS011;10704;42.678;23.288;2023-11-19T05:55:23;4.78;;;2.50;;
21091;SDS011;10704;42.678;23.288;2023-11-19T05:57:49;3.42;;;2.00;;
21091;SDS011;10704;42.678;23.288;2023-11-19T06:00:17;4.88;;;2.80;;
21091;SDS011;10704;42.678;23.288;2023-11-19T06:02:43;4.30;;;2.58;;
21091;SDS011;10704;42.678;23.288;2023-11-19T06:05:09;4.13;;;2.22;;
21091;SDS011;10704;42.678;23.288;2023-11-19T06:07:36;4.95;;;2.90;;
21091;SDS011;10704;42.678;23.288;2023-11-19T06:10:04;4.93;;;2.65;;
21091;SDS011;10704;42.678;23.288;2023-11-19T06:12:33;5.38;;;3.05;;
21091;SDS011;10704;42.678;23.288;2023-11-19T06:15:03;5.90;;;2.95;;
21091;SDS011;10704;42.678;23.288;2023-11-19T06:21:17;9.38;;;3.78;;
21091;SDS011;10704;42.678;23.288;2023-11-19T06:23:43;6.38;;;2.90;;
21091;SDS011;10704;42.678;23.288;2023-11-19T06:29:56;5.93;;;2.90;;
21091;SDS011;10704;42.678;23.288;2023-11-19T06:32:22;5.65;;;2.78;;
21091;SDS011;10704;42.678;23.288;2023-11-19T06:34:48;7.30;;;3.33;;
21091;SDS011;10704;42.678;23.288;2023-11-19T06:37:14;7.00;;;3.25;;
21091;SDS011;10704;42.678;23.288;2023-11-19T06:39:40;5.55;;;3.10;;
21091;SDS011;10704;42.678;23.288;2023-11-19T06:45:54;6.47;;;3.28;;
21091;SDS011;10704;42.678;23.288;2023-11-19T06:48:20;5.25;;;2.40;;
21091;SDS011;10704;42.678;23.288;2023-11-19T06:50:45;5.28;;;2.80;;
21091;SDS011;10704;42.678;23.288;2023-11-19T06:53:11;6.53;;;3.38;;
21091;SDS011;10704;42.678;23.288;2023-11-19T06:55:37;5.70;;;3.08;;
21091;SDS011;10704;42.678;23.288;2023-11-19T06:58:03;6.95;;;2.92;;
21091;SDS011;10704;42.678;23.288;2023-11-19T07:00:29;6.07;;;3.17;;
21091;SDS011;10704;42.678;23.288;2023-11-19T07:02:58;5.68;;;2.80;;
21091;SDS011;10704;42.678;23.288;2023-11-19T07:05:24;7.18;;;3.60;;
21091;SDS011;10704;42.678;23.288;2023-11-19T07:07:51;8.52;;;3.90;;
21091;SDS011;10704;42.678;23.288;2023-11-19T07:10:17;5.20;;;3.20;;
21091;SDS011;10704;42.678;23.288;2023-11-19T07:12:43;5.63;;;3.35;;
21091;SDS011;10704;42.678;23.288;2023-11-19T07:15:10;7.25;;;3.80;;
21091;SDS011;10704;42.678;23.288;2023-11-19T07:17:35;6.55;;;4.65;;
21091;SDS011;10704;42.678;23.288;2023-11-19T07:20:01;6.13;;;3.50;;
21091;SDS011;10704;42.678;23.288;2023-11-19T07:22:28;4.90;;;3.03;;
21091;SDS011;10704;42.678;23.288;2023-11-19T07:28:43;4.07;;;2.55;;
21091;SDS011;10704;42.678;23.288;2023-11-19T07:31:10;5.85;;;3.08;;
21091;SDS011;10704;42.678;23.288;2023-11-19T07:33:36;8.45;;;3.28;;
21091;SDS011;10704;42.678;23.288;2023-11-19T07:42:50;6.95;;;3.08;;
21091;SDS011;10704;42.678;23.288;2023-11-19T07:45:16;5.72;;;3.05;;
21091;SDS011;10704;42.678;23.288;2023-11-19T07:47:43;8.02;;;3.70;;
21091;SDS011;10704;42.678;23.288;2023-11-19T07:50:11;6.10;;;3.88;;
21091;SDS011;10704;42.678;23.288;2023-11-19T07:52:42;8.18;;;4.03;;
21091;SDS011;10704;42.678;23.288;2023-11-19T07:55:07;6.78;;;3.40;;
21091;SDS011;10704;42.678;23.288;2023-11-19T07:57:33;8.55;;;3.60;;
21091;SDS011;10704;42.678;23.288;2023-11-19T07:59:59;10.40;;;4.32;;
21091;SDS011;10704;42.678;23.288;2023-11-19T08:02:27;8.05;;;3.75;;
21091;SDS011;10704;42.678;23.288;2023-11-19T08:04:53;5.63;;;3.28;;
21091;SDS011;10704;42.678;23.288;2023-11-19T08:07:20;6.38;;;3.60;;
21091;SDS011;10704;42.678;23.288;2023-11-19T08:09:47;5.47;;;2.97;;
21091;SDS011;10704;42.678;23.288;2023-11-19T08:12:13;6.38;;;3.58;;
21091;SDS011;10704;42.678;23.288;2023-11-19T08:14:41;6.63;;;2.97;;
21091;SDS011;10704;42.678;23.288;2023-11-19T08:17:07;8.70;;;3.67;;
21091;SDS011;10704;42.678;23.288;2023-11-19T08:19:33;7.55;;;3.63;;
21091;SDS011;10704;42.678;23.288;2023-11-19T08:21:58;4.90;;;2.75;;
21091;SDS011;10704;42.678;23.288;2023-11-19T08:24:24;8.10;;;4.00;;
21091;SDS011;10704;42.678;23.288;2023-11-19T08:26:50;6.30;;;3.33;;
21091;SDS011;10704;42.678;23.288;2023-11-19T08:29:16;9.25;;;3.72;;
21091;SDS011;10704;42.678;23.288;2023-11-19T08:31:42;6.50;;;3.70;;
21091;SDS011;10704;42.678;23.288;2023-11-19T08:34:08;6.22;;;3.83;;
21091;SDS011;10704;42.678;23.288;2023-11-19T08:36:34;11.73;;;5.25;;
21091;SDS011;10704;42.678;23.288;2023-11-19T08:39:00;8.73;;;4.82;;
21091;SDS011;10704;42.678;23.288;2023-11-19T08:41:26;8.88;;;4.35;;
21091;SDS011;10704;42.678;23.288;2023-11-19T08:43:52;14.10;;;6.25;;
21091;SDS011;10704;42.678;23.288;2023-11-19T08:46:18;9.55;;;4.90;;
21091;SDS011;10704;42.678;23.288;2023-11-19T08:48:44;8.48;;;5.03;;
21091;SDS011;10704;42.678;23.288;2023-11-19T08:51:11;7.03;;;3.83;;
21091;SDS011;10704;42.678;23.288;2023-11-19T08:57:00;14.80;;;5.97;;
21091;SDS011;10704;42.678;23.288;2023-11-19T08:59:28;19.60;;;7.65;;
21091;SDS011;10704;42.678;23.288;2023-11-19T09:01:54;9.57;;;4.72;;
21091;SDS011;10704;42.678;23.288;2023-11-19T09:08:08;7.43;;;4.05;;
21091;SDS011;10704;42.678;23.288;2023-11-19T09:10:33;10.75;;;5.03;;
21091;SDS011;10704;42.678;23.288;2023-11-19T09:12:59;9.32;;;4.57;;
21091;SDS011;10704;42.678;23.288;2023-11-19T09:19:13;7.03;;;3.47;;
21091;SDS011;10704;42.678;23.288;2023-11-19T09:21:39;5.90;;;3.30;;
21091;SDS011;10704;42.678;23.288;2023-11-19T09:24:04;8.52;;;4.05;;
21091;SDS011;10704;42.678;23.288;2023-11-19T09:26:32;6.70;;;3.80;;
21091;SDS011;10704;42.678;23.288;2023-11-19T09:28:58;9.27;;;4.93;;
21091;SDS011;10704;42.678;23.288;2023-11-19T09:31:24;8.02;;;3.42;;
21091;SDS011;10704;42.678;23.288;2023-11-19T09:33:50;5.30;;;2.95;;
21091;SDS011;10704;42.678;23.288;2023-11-19T09:36:16;5.78;;;3.22;;
21091;SDS011;10704;42.678;23.288;2023-11-19T09:38:43;5.70;;;2.78;;
21091;SDS011;10704;42.678;23.288;2023-11-19T09:41:09;7.10;;;3.97;;
21091;SDS011;10704;42.678;23.288;2023-11-19T09:43:38;6.28;;;4.05;;
21091;SDS011;10704;42.678;23.288;2023-11-19T09:46:06;6.90;;;3.92;;
21091;SDS011;10704;42.678;23.288;2023-11-19T09:48:37;6.63;;;3.90;;
21091;SDS011;10704;42.678;23.288;2023-11-19T09:51:04;12.30;;;6.28;;
21091;SDS011;10704;42.678;23.288;2023-11-19T09:53:31;10.85;;;4.65;;
21091;SDS011;10704;42.678;23.288;2023-11-19T09:55:59;7.80;;;3.80;;
21091;SDS011;10704;42.678;23.288;2023-11-19T09:58:28;11.80;;;4.95;;
21091;SDS011;10704;42.678;23.288;2023-11-19T10:00:56;7.63;;;4.35;;
21091;SDS011;10704;42.678;23.288;2023-11-19T10:03:24;4.88;;;2.90;;
21091;SDS011;10704;42.678;23.288;2023-11-19T10:05:59;8.00;;;3.65;;
21091;SDS011;10704;42.678;23.288;2023-11-19T10:08:28;8.00;;;4.20;;
21091;SDS011;10704;42.678;23.288;2023-11-19T10:10:55;8.13;;;4.80;;
21091;SDS011;10704;42.678;23.288;2023-11-19T10:13:33;7.78;;;3.72;;
21091;SDS011;10704;42.678;23.288;2023-11-19T10:16:08;7.25;;;3.63;;
21091;SDS011;10704;42.678;23.288;2023-11-19T10:18:37;8.55;;;3.80;;
21091;SDS011;10704;42.678;23.288;2023-11-19T10:21:04;8.95;;;4.32;;
21091;SDS011;10704;42.678;23.288;2023-11-19T10:23:31;9.30;;;3.60;;
21091;SDS011;10704;42.678;23.288;2023-11-19T10:26:12;4.75;;;2.78;;
21091;SDS011;10704;42.678;23.288;2023-11-19T10:28:39;8.02;;;4.10;;
21091;SDS011;10704;42.678;23.288;2023-11-19T10:31:08;7.85;;;3.60;;
21091;SDS011;10704;42.678;23.288;2023-11-19T10:33:34;8.80;;;3.45;;
21091;SDS011;10704;42.678;23.288;2023-11-19T10:36:00;8.68;;;3.50;;
21091;SDS011;10704;42.678;23.288;2023-11-19T10:38:26;6.70;;;3.70;;
21091;SDS011;10704;42.678;23.288;2023-11-19T10:40:52;7.50;;;3.10;;
21091;SDS011;10704;42.678;23.288;2023-11-19T10:43:20;6.20;;;3.35;;
21091;SDS011;10704;42.678;23.288;2023-11-19T10:45:48;10.50;;;4.18;;
21091;SDS011;10704;42.678;23.288;2023-11-19T10:52:02;16.05;;;7.32;;
21091;SDS011;10704;42.678;23.288;2023-11-19T10:54:30;11.32;;;5.85;;
21091;SDS011;10704;42.678;23.288;2023-11-19T10:57:01;8.82;;;5.20;;
21091;SDS011;10704;42.678;23.288;2023-11-19T10:59:31;9.02;;;3.83;;
21091;SDS011;10704;42.678;23.288;2023-11-19T11:01:57;9.90;;;5.50;;
21091;SDS011;10704;42.678;23.288;2023-11-19T11:04:25;8.32;;;4.35;;
21091;SDS011;10704;42.678;23.288;2023-11-19T11:06:54;6.88;;;3.33;;
21091;SDS011;10704;42.678;23.288;2023-11-19T11:13:11;4.35;;;2.45;;
21091;SDS011;10704;42.678;23.288;2023-11-19T11:15:39;5.05;;;2.85;;
21091;SDS011;10704;42.678;23.288;2023-11-19T11:18:08;5.15;;;2.97;;
21091;SDS011;10704;42.678;23.288;2023-11-19T11:20:35;5.90;;;2.92;;
21091;SDS011;10704;42.678;23.288;2023-11-19T11:36:49;5.43;;;2.90;;
21091;SDS011;10704;42.678;23.288;2023-11-19T11:39:36;8.05;;;3.15;;
21091;SDS011;10704;42.678;23.288;2023-11-19T11:45:02;5.45;;;2.92;;
21091;SDS011;10704;42.678;23.288;2023-11-19T11:50:11;4.40;;;2.60;;
21091;SDS011;10704;42.678;23.288;2023-11-19T11:55:34;5.07;;;2.55;;
21091;SDS011;10704;42.678;23.288;2023-11-19T11:58:02;4.72;;;2.47;;
21091;SDS011;10704;42.678;23.288;2023-11-19T12:02:56;5.30;;;2.38;;
21091;SDS011;10704;42.678;23.288;2023-11-19T12:05:24;4.63;;;2.40;;
21091;SDS011;10704;42.678;23.288;2023-11-19T12:11:47;4.20;;;2.30;;
21091;SDS011;10704;42.678;23.288;2023-11-19T12:14:13;21.17;;;9.02;;
21091;SDS011;10704;42.678;23.288;2023-11-19T12:16:39;16.50;;;7.78;;
21091;SDS011;10704;42.678;23.288;2023-11-19T12:19:05;7.30;;;3.60;;
21091;SDS011;10704;42.678;23.288;2023-11-19T12:21:33;4.93;;;2.38;;
21091;SDS011;10704;42.678;23.288;2023-11-19T12:24:01;11.63;;;4.68;;
21091;SDS011;10704;42.678;23.288;2023-11-19T12:26:36;10.95;;;4.80;;
21091;SDS011;10704;42.678;23.288;2023-11-19T12:29:03;5.13;;;2.83;;
21091;SDS011;10704;42.678;23.288;2023-11-19T12:38:06;9.05;;;4.93;;
21091;SDS011;10704;42.678;23.288;2023-11-19T12:40:32;8.77;;;4.18;;
21091;SDS011;10704;42.678;23.288;2023-11-19T12:42:58;6.70;;;3.83;;
21091;SDS011;10704;42.678;23.288;2023-11-19T12:45:34;6.30;;;3.22;;
21091;SDS011;10704;42.678;23.288;2023-11-19T12:48:04;6.18;;;3.60;;
21091;SDS011;10704;42.678;23.288;2023-11-19T12:50:53;5.88;;;3.20;;
21091;SDS011;10704;42.678;23.288;2023-11-19T12:53:22;4.45;;;2.80;;
21091;SDS011;10704;42.678;23.288;2023-11-19T12:59:37;7.82;;;3.50;;
21091;SDS011;10704;42.678;23.288;2023-11-19T13:02:03;6.95;;;3.28;;
21091;SDS011;10704;42.678;23.288;2023-11-19T13:04:31;9.88;;;4.45;;
21091;SDS011;10704;42.678;23.288;2023-11-19T13:06:57;6.55;;;3.42;;
21091;SDS011;10704;42.678;23.288;2023-11-19T13:09:27;7.65;;;4.20;;
21091;SDS011;10704;42.678;23.288;2023-11-19T13:11:54;5.78;;;3.42;;
21091;SDS011;10704;42.678;23.288;2023-11-19T13:14:21;7.28;;;3.50;;
21091;SDS011;10704;42.678;23.288;2023-11-19T13:16:48;8.18;;;4.30;;
21091;SDS011;10704;42.678;23.288;2023-11-19T13:23:03;8.15;;;4.65;;
21091;SDS011;10704;42.678;23.288;2023-11-19T13:29:18;8.45;;;3.95;;
21091;SDS011;10704;42.678;23.288;2023-11-19T13:31:44;6.97;;;3.20;;
21091;SDS011;10704;42.678;23.288;2023-11-19T13:34:11;5.10;;;2.85;;
21091;SDS011;10704;42.678;23.288;2023-11-19T13:40:25;7.07;;;3.42;;
21091;SDS011;10704;42.678;23.288;2023-11-19T13:45:41;6.10;;;3.13;;
21091;SDS011;10704;42.678;23.288;2023-11-19T13:51:56;6.60;;;3.65;;
21091;SDS011;10704;42.678;23.288;2023-11-19T13:54:22;7.32;;;3.58;;
21091;SDS011;10704;42.678;23.288;2023-11-19T13:56:48;5.88;;;3.10;;
21091;SDS011;10704;42.678;23.288;2023-11-19T14:03:01;4.80;;;2.85;;
21091;SDS011;10704;42.678;23.288;2023-11-19T14:09:34;4.90;;;2.33;;
21091;SDS011;10704;42.678;23.288;2023-11-19T14:12:00;4.45;;;2.13;;
21091;SDS011;10704;42.678;23.288;2023-11-19T14:14:25;8.02;;;2.92;;
21091;SDS011;10704;42.678;23.288;2023-11-19T14:27:16;10.32;;;4.50;;
21091;SDS011;10704;42.678;23.288;2023-11-19T14:33:30;9.98;;;4.53;;
21091;SDS011;10704;42.678;23.288;2023-11-19T14:35:57;10.90;;;4.63;;
21091;SDS011;10704;42.678;23.288;2023-11-19T14:41:20;8.38;;;4.20;;
21091;SDS011;10704;42.678;23.288;2023-11-19T14:43:46;10.20;;;5.30;;
21091;SDS011;10704;42.678;23.288;2023-11-19T14:46:13;10.20;;;5.38;;
21091;SDS011;10704;42.678;23.288;2023-11-19T14:48:39;10.80;;;5.05;;
21091;SDS011;10704;42.678;23.288;2023-11-19T14:51:05;11.95;;;6.13;;
21091;SDS011;10704;42.678;23.288;2023-11-19T14:57:18;14.50;;;7.80;;
21091;SDS011;10704;42.678;23.288;2023-11-19T14:59:44;11.15;;;5.82;;
21091;SDS011;10704;42.678;23.288;2023-11-19T15:05:59;16.42;;;8.20;;
21091;SDS011;10704;42.678;23.288;2023-11-19T15:08:25;17.98;;;9.10;;
21091;SDS011;10704;42.678;23.288;2023-11-19T15:10:51;16.60;;;7.40;;
21091;SDS011;10704;42.678;23.288;2023-11-19T15:13:17;13.40;;;7.95;;
21091;SDS011;10704;42.678;23.288;2023-11-19T15:23:19;13.55;;;6.93;;
21091;SDS011;10704;42.678;23.288;2023-11-19T15:25:45;12.95;;;6.35;;
21091;SDS011;10704;42.678;23.288;2023-11-19T15:28:10;13.15;;;7.18;;
21091;SDS011;10704;42.678;23.288;2023-11-19T15:30:37;13.73;;;7.07;;
21091;SDS011;10704;42.678;23.288;2023-11-19T15:33:02;14.15;;;8.00;;
21091;SDS011;10704;42.678;23.288;2023-11-19T15:35:28;14.75;;;8.05;;
21091;SDS011;10704;42.678;23.288;2023-11-19T15:37:54;16.60;;;7.63;;
21091;SDS011;10704;42.678;23.288;2023-11-19T15:40:21;17.08;;;8.10;;
21091;SDS011;10704;42.678;23.288;2023-11-19T15:42:47;14.98;;;7.80;;
21091;SDS011;10704;42.678;23.288;2023-11-19T15:45:13;15.70;;;7.88;;
21091;SDS011;10704;42.678;23.288;2023-11-19T15:47:41;20.48;;;9.60;;
21091;SDS011;10704;42.678;23.288;2023-11-19T15:56:31;23.33;;;10.85;;
21091;SDS011;10704;42.678;23.288;2023-11-19T15:58:57;30.95;;;13.65;;
21091;SDS011;10704;42.678;23.288;2023-11-19T16:01:23;31.08;;;13.85;;
21091;SDS011;10704;42.678;23.288;2023-11-19T16:03:48;26.38;;;14.00;;
21091;SDS011;10704;42.678;23.288;2023-11-19T16:06:14;28.55;;;13.80;;
21091;SDS011;10704;42.678;23.288;2023-11-19T16:08:41;32.92;;;14.32;;
21091;SDS011;10704;42.678;23.288;2023-11-19T16:11:09;27.52;;;12.60;;
21091;SDS011;10704;42.678;23.288;2023-11-19T16:13:35;29.00;;;13.77;;
21091;SDS011;10704;42.678;23.288;2023-11-19T16:16:01;30.00;;;15.25;;
21091;SDS011;10704;42.678;23.288;2023-11-19T16:18:27;27.40;;;13.68;;
21091;SDS011;10704;42.678;23.288;2023-11-19T16:20:54;30.58;;;15.55;;
21091;SDS011;10704;42.678;23.288;2023-11-19T16:27:07;21.60;;;11.57;;
21091;SDS011;10704;42.678;23.288;2023-11-19T16:29:35;21.58;;;11.63;;
21091;SDS011;10704;42.678;23.288;2023-11-19T16:32:00;23.90;;;11.82;;
21091;SDS011;10704;42.678;23.288;2023-11-19T16:34:26;24.73;;;11.77;;
21091;SDS011;10704;42.678;23.288;2023-11-19T16:36:52;19.27;;;10.18;;
21091;SDS011;10704;42.678;23.288;2023-11-19T16:39:18;18.55;;;8.88;;
21091;SDS011;10704;42.678;23.288;2023-11-19T16:41:44;15.05;;;8.93;;
21091;SDS011;10704;42.678;23.288;2023-11-19T16:44:10;19.42;;;10.05;;
21091;SDS011;10704;42.678;23.288;2023-11-19T16:46:36;25.90;;;12.10;;
21091;SDS011;10704;42.678;23.288;2023-11-19T16:49:01;28.13;;;13.15;;
21091;SDS011;10704;42.678;23.288;2023-11-19T16:51:27;22.98;;;11.95;;
21091;SDS011;10704;42.678;23.288;2023-11-19T16:57:41;27.45;;;13.45;;
21091;SDS011;10704;42.678;23.288;2023-11-19T17:00:09;25.73;;;11.90;;
21091;SDS011;10704;42.678;23.288;2023-11-19T17:06:23;25.30;;;12.70;;
21091;SDS011;10704;42.678;23.288;2023-11-19T17:08:48;20.48;;;10.70;;
21091;SDS011;10704;42.678;23.288;2023-11-19T17:11:14;20.10;;;10.77;;
21091;SDS011;10704;42.678;23.288;2023-11-19T17:21:15;20.40;;;9.50;;
21091;SDS011;10704;42.678;23.288;2023-11-19T17:27:29;22.35;;;9.43;;
21091;SDS011;10704;42.678;23.288;2023-11-19T17:29:55;20.65;;;10.32;;
21091;SDS011;10704;42.678;23.288;2023-11-19T17:32:22;27.48;;;12.00;;
21091;SDS011;10704;42.678;23.288;2023-11-19T17:34:49;24.55;;;11.80;;
21091;SDS011;10704;42.678;23.288;2023-11-19T17:37:15;20.75;;;10.82;;
21091;SDS011;10704;42.678;23.288;2023-11-19T17:39:46;23.98;;;11.50;;
21091;SDS011;10704;42.678;23.288;2023-11-19T17:42:12;24.05;;;10.38;;
21091;SDS011;10704;42.678;23.288;2023-11-19T17:44:38;20.98;;;10.18;;
21091;SDS011;10704;42.678;23.288;2023-11-19T17:47:04;15.13;;;8.25;;
21091;SDS011;10704;42.678;23.288;2023-11-19T17:49:30;12.27;;;6.68;;
21091;SDS011;10704;42.678;23.288;2023-11-19T17:51:56;12.00;;;6.18;;
21091;SDS011;10704;42.678;23.288;2023-11-19T17:54:24;14.35;;;6.85;;
21091;SDS011;10704;42.678;23.288;2023-11-19T17:56:50;14.10;;;6.90;;
21091;SDS011;10704;42.678;23.288;2023-11-19T17:59:16;12.18;;;7.13;;
21091;SDS011;10704;42.678;23.288;2023-11-19T18:01:42;14.75;;;7.55;;
21091;SDS011;10704;42.678;23.288;2023-11-19T18:04:08;22.65;;;9.65;;
21091;SDS011;10704;42.678;23.288;2023-11-19T18:06:34;14.35;;;7.03;;
21091;SDS011;10704;42.678;23.288;2023-11-19T18:09:02;16.13;;;6.60;;
21091;SDS011;10704;42.678;23.288;2023-11-19T18:11:40;17.70;;;6.25;;
21091;SDS011;10704;42.678;23.288;2023-11-19T18:17:54;13.55;;;5.60;;
21091;SDS011;10704;42.678;23.288;2023-11-19T18:20:20;12.88;;;6.10;;
21091;SDS011;10704;42.678;23.288;2023-11-19T18:22:46;10.38;;;5.88;;
21091;SDS011;10704;42.678;23.288;2023-11-19T18:25:12;14.55;;;6.97;;
21091;SDS011;10704;42.678;23.288;2023-11-19T18:27:40;14.10;;;6.43;;
21091;SDS011;10704;42.678;23.288;2023-11-19T18:30:07;19.05;;;10.35;;
21091;SDS011;10704;42.678;23.288;2023-11-19T18:32:38;10.88;;;4.90;;
21091;SDS011;10704;42.678;23.288;2023-11-19T18:39:00;8.38;;;4.13;;
21091;SDS011;10704;42.678;23.288;2023-11-19T18:41:26;7.07;;;3.83;;
21091;SDS011;10704;42.678;23.288;2023-11-19T18:43:52;7.57;;;3.72;;
21091;SDS011;10704;42.678;23.288;2023-11-19T18:46:18;8.48;;;3.83;;
21091;SDS011;10704;42.678;23.288;2023-11-19T18:56:18;18.67;;;9.35;;
21091;SDS011;10704;42.678;23.288;2023-11-19T18:58:44;15.38;;;7.03;;
21091;SDS011;10704;42.678;23.288;2023-11-19T19:01:10;17.75;;;8.05;;
21091;SDS011;10704;42.678;23.288;2023-11-19T19:07:25;20.67;;;8.82;;